createdAt,value
2018-02-09T00:00:12.140Z,81.71
2018-02-09T00:02:42.909Z,81.48
2018-02-09T00:05:14.306Z,80.98
2018-02-09T00:07:45.141Z,81.92
2018-02-09T00:10:16.434Z,81.05
2018-02-09T00:12:47.845Z,81.95
2018-02-09T00:15:18.985Z,81.76
2018-02-09T00:17:51.038Z,81.59
2018-02-09T00:20:21.865Z,81.14
2018-02-09T00:22:55.649Z,81.00
2018-02-09T00:25:26.520Z,81.11
2018-02-09T00:27:58.056Z,80.68
2018-02-09T00:30:29.468Z,81.27
2018-02-09T00:33:00.884Z,81.09
2018-02-09T00:35:32.764Z,80.89
2018-02-09T00:38:04.219Z,81.04
2018-02-09T00:40:35.373Z,80.84
2018-02-09T00:43:06.772Z,80.96
2018-02-09T00:45:37.988Z,81.03
2018-02-09T00:48:09.739Z,81.57
2018-02-09T00:50:40.804Z,81.35
2018-02-09T00:53:12.345Z,81.23
2018-02-09T00:55:44.172Z,81.66
2018-02-09T00:58:15.716Z,81.64
2018-02-09T01:00:47.224Z,82.21
2018-02-09T01:03:18.889Z,82.43
2018-02-09T01:05:50.216Z,82.20
2018-02-09T01:08:21.820Z,82.38
2018-02-09T01:10:53.625Z,82.55
2018-02-09T01:13:24.960Z,82.74
2018-02-09T01:15:56.674Z,82.20
2018-02-09T01:18:27.875Z,82.27
2018-02-09T01:20:59.384Z,81.45
2018-02-09T01:23:30.777Z,81.71
2018-02-09T01:26:02.395Z,81.88
2018-02-09T01:28:33.517Z,81.47
2018-02-09T01:31:05.015Z,80.40
2018-02-09T01:33:36.684Z,80.73
2018-02-09T01:36:07.505Z,81.73
2018-02-09T01:38:38.740Z,81.01
2018-02-09T01:41:10.364Z,81.00
2018-02-09T01:43:41.764Z,80.98
2018-02-09T01:46:13.721Z,81.13
2018-02-09T01:48:44.541Z,81.08
2018-02-09T01:51:16.089Z,80.99
2018-02-09T01:53:47.460Z,80.97
2018-02-09T01:56:19.265Z,80.89
2018-02-09T01:58:50.937Z,80.83
2018-02-09T02:01:23.072Z,80.85
2018-02-09T02:03:55.763Z,81.58
2018-02-09T02:06:26.901Z,82.26
2018-02-09T02:08:58.065Z,81.30
2018-02-09T02:11:30.187Z,81.37
2018-02-09T02:14:02.011Z,80.96
2018-02-09T02:16:33.132Z,81.26
2018-02-09T02:19:04.263Z,80.67
2018-02-09T02:21:36.007Z,81.40
2018-02-09T02:24:07.673Z,81.04
2018-02-09T02:26:39.400Z,80.51
2018-02-09T02:29:10.550Z,80.69
2018-02-09T02:31:42.308Z,81.05
2018-02-09T02:34:13.395Z,80.94
2018-02-09T02:36:44.495Z,81.08
2018-02-09T02:39:15.913Z,80.46
2018-02-09T02:41:47.516Z,80.65
2018-02-09T02:44:19.061Z,80.73
2018-02-09T02:46:50.756Z,81.52
2018-02-09T02:49:22.792Z,82.16
2018-02-09T02:51:54.540Z,83.15
2018-02-09T02:54:26.284Z,81.86
2018-02-09T02:56:57.476Z,82.13
2018-02-09T02:59:28.904Z,81.83
2018-02-09T03:02:00.628Z,82.31
2018-02-09T03:04:31.970Z,82.07
2018-02-09T03:07:03.764Z,81.78
2018-02-09T03:09:35.362Z,81.98
2018-02-09T03:12:07.162Z,82.27
2018-02-09T03:14:38.560Z,82.35
2018-02-09T03:17:10.148Z,81.82
2018-02-09T03:19:41.912Z,81.78
2018-02-09T03:22:13.703Z,81.30
2018-02-09T03:24:45.663Z,81.47
2018-02-09T03:27:16.804Z,82.10
2018-02-09T03:29:48.556Z,81.12
2018-02-09T03:32:20.071Z,80.40
2018-02-09T03:34:51.784Z,80.16
2018-02-09T03:37:23.120Z,80.43
2018-02-09T03:39:54.968Z,80.54
2018-02-09T03:42:26.948Z,80.29
2018-02-09T03:44:58.723Z,80.69
2018-02-09T03:47:30.433Z,80.84
2018-02-09T03:50:02.355Z,81.04
2018-02-09T03:52:33.928Z,80.85
2018-02-09T03:55:05.467Z,80.92
2018-02-09T03:57:37.151Z,80.95
2018-02-09T04:00:08.844Z,81.32
2018-02-09T04:02:40.346Z,80.77
2018-02-09T04:05:12.172Z,81.02
2018-02-09T04:07:43.739Z,80.77
2018-02-09T04:10:15.437Z,81.01
2018-02-09T04:12:46.511Z,81.12
2018-02-09T04:15:19.194Z,81.47
2018-02-09T04:17:51.014Z,81.11
2018-02-09T04:20:22.544Z,80.70
2018-02-09T04:22:54.564Z,80.28
2018-02-09T04:25:26.505Z,79.82
2018-02-09T04:27:58.165Z,80.22
2018-02-09T04:30:29.693Z,79.44
2018-02-09T04:33:01.291Z,79.12
2018-02-09T04:35:33.602Z,79.66
2018-02-09T04:38:05.116Z,79.59
2018-02-09T04:40:36.821Z,79.53
2018-02-09T04:43:09.017Z,79.47
2018-02-09T04:45:40.932Z,79.86
2018-02-09T04:48:12.749Z,80.32
2018-02-09T04:50:44.556Z,81.34
2018-02-09T04:53:16.148Z,81.13
2018-02-09T04:55:47.800Z,80.47
2018-02-09T04:58:19.546Z,80.21
2018-02-09T05:00:50.960Z,82.57
2018-02-09T05:03:22.725Z,81.03
2018-02-09T05:05:54.533Z,80.32
2018-02-09T05:08:26.156Z,79.67
2018-02-09T05:10:58.427Z,78.84
2018-02-09T05:13:29.964Z,79.39
2018-02-09T05:16:01.604Z,80.50
2018-02-09T05:18:33.300Z,81.38
2018-02-09T05:21:04.447Z,81.59
2018-02-09T05:23:36.462Z,81.56
2018-02-09T05:26:08.371Z,81.06
2018-02-09T05:28:40.340Z,81.38
2018-02-09T05:31:12.037Z,82.24
2018-02-09T05:33:43.400Z,81.68
2018-02-09T05:36:15.144Z,80.93
2018-02-09T05:38:47.013Z,80.78
2018-02-09T05:41:19.024Z,80.89
2018-02-09T05:43:50.909Z,81.78
2018-02-09T05:46:22.673Z,80.77
2018-02-09T05:48:54.575Z,80.46
2018-02-09T05:51:25.961Z,80.43
2018-02-09T05:53:57.848Z,81.27
2018-02-09T05:56:29.208Z,81.25
2018-02-09T05:59:00.838Z,81.75
2018-02-09T06:01:32.679Z,81.44
2018-02-09T06:04:04.641Z,81.29
2018-02-09T06:06:36.468Z,81.56
2018-02-09T06:09:08.113Z,81.23
2018-02-09T06:11:44.085Z,80.57
2018-02-09T06:14:15.600Z,80.00
2018-02-09T06:16:47.399Z,79.91
2018-02-09T06:19:19.127Z,80.10
2018-02-09T06:21:50.466Z,80.74
2018-02-09T06:24:22.124Z,80.97
2018-02-09T06:26:53.914Z,80.48
2018-02-09T06:29:25.777Z,81.17
2018-02-09T06:31:58.017Z,80.63
2018-02-09T06:34:29.888Z,80.86
2018-02-09T06:37:02.544Z,80.44
2018-02-09T06:39:34.763Z,80.88
2018-02-09T06:42:06.934Z,83.68
2018-02-09T06:44:38.856Z,81.59
2018-02-09T06:47:10.279Z,82.09
2018-02-09T06:49:42.056Z,80.56
2018-02-09T06:52:15.050Z,80.09
2018-02-09T06:54:46.804Z,80.93
2018-02-09T06:57:18.715Z,80.87
2018-02-09T06:59:50.507Z,81.86
2018-02-09T07:02:22.638Z,81.61
2018-02-09T07:04:54.607Z,81.80
2018-02-09T07:07:26.240Z,81.77
2018-02-09T07:09:58.139Z,80.98
2018-02-09T07:12:29.698Z,79.80
2018-02-09T07:15:01.820Z,80.49
2018-02-09T07:17:33.470Z,80.28
2018-02-09T07:20:05.041Z,80.36
2018-02-09T07:22:36.997Z,82.23
2018-02-09T07:25:08.124Z,80.50
2018-02-09T07:27:40.168Z,81.77
2018-02-09T07:30:11.883Z,82.04
2018-02-09T07:32:43.767Z,81.40
2018-02-09T07:35:14.909Z,80.82
2018-02-09T07:37:46.275Z,79.67
2018-02-09T07:40:17.460Z,79.67
2018-02-09T07:42:48.952Z,81.32
2018-02-09T07:45:20.690Z,81.18
2018-02-09T07:47:51.796Z,81.61
2018-02-09T07:50:24.465Z,81.47
2018-02-09T07:52:56.062Z,81.16
2018-02-09T07:55:27.530Z,81.27
2018-02-09T07:57:58.702Z,81.13
2018-02-09T08:00:29.776Z,81.14
2018-02-09T08:03:01.243Z,80.69
2018-02-09T08:05:32.365Z,81.43
2018-02-09T08:08:03.428Z,81.14
2018-02-09T08:10:37.453Z,85.32
2018-02-09T08:13:09.441Z,84.16
2018-02-09T08:15:41.120Z,84.54
2018-02-09T08:18:12.302Z,83.96
2018-02-09T08:20:43.433Z,83.99
2018-02-09T08:23:14.711Z,83.71
2018-02-09T08:25:45.916Z,84.73
2018-02-09T08:28:16.977Z,83.60
2018-02-09T08:30:48.054Z,85.37
2018-02-09T08:33:19.150Z,88.04
2018-02-09T08:35:50.411Z,87.92
2018-02-09T08:38:22.123Z,87.44
2018-02-09T08:40:53.074Z,90.63
2018-02-09T08:43:23.940Z,90.65
2018-02-09T08:45:55.148Z,90.92
2018-02-09T08:48:26.000Z,90.64
2018-02-09T08:50:57.418Z,89.08
2018-02-09T08:53:28.390Z,90.54
2018-02-09T08:55:59.682Z,88.43
2018-02-09T08:58:32.053Z,88.49
2018-02-09T09:01:03.228Z,85.81
2018-02-09T09:03:34.440Z,88.03
2018-02-09T09:06:06.538Z,89.87
2018-02-09T09:08:37.776Z,89.86
2018-02-09T09:11:08.834Z,90.89
2018-02-09T09:13:39.909Z,90.38
2018-02-09T09:16:10.728Z,88.93
2018-02-09T09:18:41.792Z,87.33
2018-02-09T09:21:12.933Z,85.86
2018-02-09T09:23:43.751Z,85.24
2018-02-09T09:26:14.864Z,86.02
2018-02-09T09:28:45.716Z,85.50
2018-02-09T09:31:16.572Z,86.25
2018-02-09T09:33:47.427Z,86.72
2018-02-09T09:36:18.287Z,87.09
2018-02-09T09:38:49.292Z,87.23
2018-02-09T09:41:20.524Z,87.69
2018-02-09T09:43:51.404Z,86.87
2018-02-09T09:46:22.630Z,87.73
2018-02-09T09:48:53.504Z,88.64
2018-02-09T09:51:24.443Z,88.13
2018-02-09T09:53:55.649Z,87.81
2018-02-09T09:56:26.505Z,87.25
2018-02-09T09:58:57.314Z,86.52
2018-02-09T10:01:33.310Z,85.59
2018-02-09T10:04:05.420Z,87.03
2018-02-09T10:06:36.241Z,88.16
2018-02-09T10:09:07.124Z,88.47
2018-02-09T10:11:37.934Z,87.29
2018-02-09T10:14:09.543Z,86.12
2018-02-09T10:16:40.304Z,86.27
2018-02-09T10:19:11.115Z,88.27
2018-02-09T10:21:42.215Z,86.50
2018-02-09T10:24:13.596Z,86.36
2018-02-09T10:26:44.860Z,86.99
2018-02-09T10:29:16.568Z,85.19
2018-02-09T10:31:47.348Z,87.67
2018-02-09T10:34:18.604Z,87.46
2018-02-09T10:36:49.438Z,88.14
2018-02-09T10:39:20.692Z,85.38
2018-02-09T10:41:51.452Z,85.51
2018-02-09T10:44:22.322Z,86.70
2018-02-09T10:46:53.246Z,86.83
2018-02-09T10:49:24.153Z,84.55
2018-02-09T10:51:55.727Z,85.62
2018-02-09T10:54:27.079Z,84.29
2018-02-09T10:56:58.327Z,85.05
2018-02-09T10:59:29.161Z,83.60
2018-02-09T11:01:59.988Z,86.80
2018-02-09T11:04:31.137Z,89.07
2018-02-09T11:07:02.042Z,88.43
2018-02-09T11:09:33.568Z,91.47
2018-02-09T11:12:08.621Z,91.13
2018-02-09T11:14:39.378Z,88.14
2018-02-09T11:17:10.495Z,86.79
2018-02-09T11:19:41.304Z,91.62
2018-02-09T11:22:12.004Z,91.48
2018-02-09T11:24:43.104Z,88.00
2018-02-09T11:27:13.885Z,88.62
2018-02-09T11:29:46.261Z,88.77
2018-02-09T11:32:17.396Z,88.22
2018-02-09T11:34:48.292Z,84.37
2018-02-09T11:37:19.184Z,84.34
2018-02-09T11:39:50.211Z,84.27
2018-02-09T11:42:21.121Z,83.18
2018-02-09T11:44:51.953Z,82.50
2018-02-09T11:47:22.848Z,81.77
2018-02-09T11:49:53.598Z,85.34
2018-02-09T11:52:25.288Z,83.07
2018-02-09T11:54:56.824Z,83.79
2018-02-09T11:57:27.640Z,88.06
2018-02-09T11:59:59.367Z,83.82
2018-02-09T12:02:30.205Z,83.17
2018-02-09T12:05:01.019Z,82.81
2018-02-09T12:07:32.584Z,83.29
2018-02-09T12:10:03.442Z,84.03
2018-02-09T12:12:34.232Z,81.42
2018-02-09T12:15:05.153Z,80.73
2018-02-09T12:17:36.016Z,81.07
2018-02-09T12:20:07.267Z,82.07
2018-02-09T12:22:38.203Z,83.95
2018-02-09T12:25:09.033Z,81.71
2018-02-09T12:27:40.123Z,80.63
2018-02-09T12:30:10.883Z,81.21
2018-02-09T12:32:41.724Z,82.84
2018-02-09T12:35:12.808Z,81.32
2018-02-09T12:37:43.587Z,80.19
2018-02-09T12:40:14.423Z,81.10
2018-02-09T12:42:45.564Z,81.09
2018-02-09T12:45:16.414Z,80.53
2018-02-09T12:47:48.228Z,81.02
2018-02-09T12:50:19.296Z,82.76
2018-02-09T12:52:50.598Z,80.44
2018-02-09T12:55:21.412Z,81.12
2018-02-09T12:57:53.411Z,82.51
2018-02-09T13:00:24.706Z,81.60
2018-02-09T13:02:55.523Z,85.36
2018-02-09T13:05:26.742Z,83.19
2018-02-09T13:07:57.544Z,85.74
2018-02-09T13:10:28.333Z,81.99
2018-02-09T13:13:10.020Z,84.41
2018-02-09T13:15:40.895Z,85.15
2018-02-09T13:18:20.249Z,82.53
2018-02-09T13:20:51.064Z,83.41
2018-02-09T13:24:35.179Z,83.07
2018-02-09T13:27:06.048Z,84.17
2018-02-09T13:29:37.677Z,83.79
2018-02-09T13:32:08.427Z,81.39
2018-02-09T13:34:39.256Z,81.06
2018-02-09T13:37:42.484Z,82.94
2018-02-09T13:40:14.168Z,83.48
2018-02-09T13:42:45.044Z,82.06
2018-02-09T13:45:16.688Z,80.51
2018-02-09T13:47:48.711Z,79.95
2018-02-09T13:50:20.001Z,79.99
2018-02-09T13:52:50.875Z,80.50
2018-02-09T13:55:21.672Z,80.29
2018-02-09T13:57:52.548Z,81.84
2018-02-09T14:00:23.384Z,81.05
2018-02-09T14:02:54.124Z,80.79
2018-02-09T14:05:25.560Z,82.87
2018-02-09T14:07:56.473Z,80.76
2018-02-09T14:10:27.656Z,82.16
2018-02-09T14:12:58.483Z,81.45
2018-02-09T14:15:29.308Z,81.80
2018-02-09T14:18:00.631Z,80.20
2018-02-09T14:20:31.436Z,79.69
2018-02-09T14:23:02.294Z,79.45
2018-02-09T14:25:34.732Z,80.38
2018-02-09T14:28:05.576Z,79.91
2018-02-09T14:30:36.392Z,80.58
2018-02-09T14:33:07.553Z,80.60
2018-02-09T14:35:38.343Z,81.63
2018-02-09T14:38:09.192Z,81.17
2018-02-09T14:40:41.713Z,80.52
2018-02-09T14:43:12.653Z,79.84
2018-02-09T14:45:43.986Z,79.69
2018-02-09T14:48:15.053Z,80.29
2018-02-09T14:50:45.879Z,80.61
2018-02-09T14:53:17.032Z,79.89
2018-02-09T14:55:48.364Z,81.97
2018-02-09T14:58:19.655Z,80.67
2018-02-09T15:00:50.533Z,80.28
2018-02-09T15:03:21.606Z,79.58
2018-02-09T15:05:52.394Z,80.09
2018-02-09T15:08:23.509Z,79.50
2018-02-09T15:10:54.402Z,80.20
2018-02-09T15:13:25.227Z,80.00
2018-02-09T15:15:56.316Z,78.92
2018-02-09T15:18:27.162Z,79.03
2018-02-09T15:20:57.994Z,78.29
2018-02-09T15:23:29.168Z,78.97
2018-02-09T15:26:00.035Z,78.29
2018-02-09T15:28:30.852Z,78.17
2018-02-09T15:31:02.743Z,78.99
2018-02-09T15:33:33.513Z,79.26
2018-02-09T15:36:04.376Z,78.89
2018-02-09T15:38:35.540Z,78.04
2018-02-09T15:41:06.324Z,80.03
2018-02-09T15:43:37.511Z,79.81
2018-02-09T15:46:08.309Z,80.21
2018-02-09T15:48:39.168Z,81.38
2018-02-09T15:51:10.064Z,82.32
2018-02-09T15:53:40.913Z,85.20
2018-02-09T15:56:11.717Z,83.24
2018-02-09T15:58:43.396Z,81.81
2018-02-09T16:01:14.206Z,82.39
2018-02-09T16:03:45.035Z,81.14
2018-02-09T16:06:15.876Z,81.05
2018-02-09T16:08:46.748Z,80.54
2018-02-09T16:11:17.632Z,79.88
2018-02-09T16:13:48.756Z,81.04
2018-02-09T16:16:19.579Z,82.56
2018-02-09T16:18:50.421Z,83.01
2018-02-09T16:21:21.196Z,82.07
2018-02-09T16:23:51.973Z,82.01
2018-02-09T16:26:23.032Z,82.47
2018-02-09T16:28:53.908Z,83.01
2018-02-09T16:31:24.700Z,82.68
2018-02-09T16:33:55.749Z,82.96
2018-02-09T16:36:26.744Z,82.84
2018-02-09T16:38:57.530Z,81.78
2018-02-09T16:41:28.540Z,82.55
2018-02-09T16:44:00.263Z,82.99
2018-02-09T16:46:31.735Z,82.99
2018-02-09T16:49:03.020Z,82.89
2018-02-09T16:51:33.917Z,83.44
2018-02-09T16:54:06.011Z,82.21
2018-02-09T16:56:37.231Z,82.88
2018-02-09T16:59:08.559Z,82.96
2018-02-09T17:01:41.133Z,82.91
2018-02-09T17:04:12.236Z,83.04
2018-02-09T17:06:43.081Z,83.22
2018-02-09T17:09:13.948Z,82.46
2018-02-09T17:11:44.736Z,83.20
2018-02-09T17:14:15.922Z,83.11
2018-02-09T17:16:46.772Z,83.43
2018-02-09T17:19:17.595Z,83.02
2018-02-09T17:21:49.007Z,83.13
2018-02-09T17:24:19.817Z,82.81
2018-02-09T17:26:50.636Z,83.38
2018-02-09T17:29:21.781Z,83.03
2018-02-09T17:31:52.593Z,83.25
2018-02-09T17:34:23.871Z,82.99
2018-02-09T17:36:54.964Z,83.22
2018-02-09T17:39:25.848Z,83.28
2018-02-09T17:41:56.688Z,83.24
2018-02-09T17:44:27.760Z,83.44
2018-02-09T17:46:59.174Z,83.62
2018-02-09T17:49:30.374Z,83.52
2018-02-09T17:52:01.756Z,83.51
2018-02-09T17:54:32.553Z,83.18
2018-02-09T17:57:03.855Z,83.34
2018-02-09T17:59:34.622Z,83.82
2018-02-09T18:02:05.516Z,83.65
2018-02-09T18:04:36.639Z,83.62
2018-02-09T18:07:07.483Z,83.72
2018-02-09T18:09:38.333Z,83.78
2018-02-09T18:12:09.424Z,83.76
2018-02-09T18:14:40.287Z,83.76
2018-02-09T18:17:11.898Z,83.60
2018-02-09T18:19:43.418Z,83.37
2018-02-09T18:22:14.236Z,83.69
2018-02-09T18:24:45.309Z,82.93
2018-02-09T18:27:16.174Z,83.38
2018-02-09T18:29:46.952Z,83.07
2018-02-09T18:32:18.161Z,82.76
2018-02-09T18:34:48.909Z,82.88
2018-02-09T18:37:19.745Z,83.68
2018-02-09T18:39:50.800Z,82.54
2018-02-09T18:42:21.616Z,82.81
2018-02-09T18:44:52.356Z,83.25
2018-02-09T18:47:23.420Z,82.43
2018-02-09T18:49:54.884Z,82.60
2018-02-09T18:52:25.963Z,82.96
2018-02-09T18:54:56.783Z,82.58
2018-02-09T18:57:27.592Z,83.61
2018-02-09T18:59:58.656Z,83.47
2018-02-09T19:02:29.432Z,83.02
2018-02-09T19:05:00.198Z,82.57
2018-02-09T19:07:31.616Z,83.20
2018-02-09T19:10:02.433Z,82.59
2018-02-09T19:12:33.232Z,82.38
2018-02-09T19:15:04.432Z,83.68
2018-02-09T19:17:35.136Z,83.41
2018-02-09T19:20:06.441Z,83.14
2018-02-09T19:22:37.568Z,82.88
2018-02-09T19:25:08.450Z,83.72
2018-02-09T19:27:39.503Z,82.04
2018-02-09T19:30:10.565Z,81.93
2018-02-09T19:32:41.444Z,82.66
2018-02-09T19:35:12.554Z,82.28
2018-02-09T19:37:43.336Z,82.20
2018-02-09T19:40:14.104Z,82.50
2018-02-09T19:42:45.220Z,81.66
2018-02-09T19:45:16.038Z,81.12
2018-02-09T19:47:46.860Z,82.47
2018-02-09T19:50:17.939Z,83.13
2018-02-09T19:52:48.828Z,81.60
2018-02-09T19:55:19.588Z,81.78
2018-02-09T19:57:50.459Z,82.71
2018-02-09T20:00:21.517Z,83.03
2018-02-09T20:02:52.577Z,81.94
2018-02-09T20:05:23.410Z,82.10
2018-02-09T20:07:54.258Z,81.95
2018-02-09T20:10:25.170Z,81.92
2018-02-09T20:12:55.965Z,81.62
2018-02-09T20:15:26.819Z,80.95
2018-02-09T20:17:58.017Z,81.60
2018-02-09T20:20:28.860Z,81.41
2018-02-09T20:22:59.632Z,82.09
2018-02-09T20:25:30.844Z,81.95
2018-02-09T20:28:01.632Z,80.89
2018-02-09T20:30:37.020Z,80.31
2018-02-09T20:33:08.112Z,80.97
2018-02-09T20:35:38.921Z,80.50
2018-02-09T20:38:10.815Z,81.63
2018-02-09T20:40:41.916Z,82.08
2018-02-09T20:43:12.803Z,81.17
2018-02-09T20:45:44.918Z,80.93
2018-02-09T20:48:16.266Z,81.54
2018-02-09T20:50:47.405Z,82.03
2018-02-09T20:53:18.789Z,82.30
2018-02-09T20:55:51.204Z,80.85
2018-02-09T20:58:21.997Z,81.52
2018-02-09T21:00:52.764Z,81.12
2018-02-09T21:03:24.009Z,81.00
2018-02-09T21:05:54.765Z,80.80
2018-02-09T21:08:26.391Z,80.63
2018-02-09T21:10:58.592Z,80.87
2018-02-09T21:13:30.688Z,81.31
2018-02-09T21:16:05.214Z,80.99
2018-02-09T21:18:38.799Z,80.75
2018-02-09T21:21:09.875Z,80.77
2018-02-09T21:23:40.616Z,81.22
2018-02-09T21:26:16.377Z,80.63
2018-02-09T21:28:48.199Z,81.87
2018-02-09T21:31:19.498Z,81.72
2018-02-09T21:33:51.672Z,81.54
2018-02-09T21:36:22.384Z,80.81
2018-02-09T21:38:53.184Z,80.94
2018-02-09T21:41:24.118Z,81.59
2018-02-09T21:43:54.856Z,80.93
2018-02-09T21:46:26.028Z,81.05
2018-02-09T21:48:57.100Z,81.16
2018-02-09T21:51:27.952Z,81.96
2018-02-09T21:53:59.165Z,81.05
2018-02-09T21:56:30.247Z,80.86
2018-02-09T21:59:01.046Z,80.96
2018-02-09T22:01:31.790Z,80.89
2018-02-09T22:04:02.948Z,81.99
2018-02-09T22:06:33.748Z,80.98
2018-02-09T22:09:05.200Z,80.64
2018-02-09T22:11:35.994Z,80.73
2018-02-09T22:14:06.856Z,80.59
2018-02-09T22:16:38.056Z,80.16
2018-02-09T22:19:08.887Z,80.21
2018-02-09T22:21:39.676Z,79.83
2018-02-09T22:24:10.727Z,80.01
2018-02-09T22:26:41.500Z,80.29
2018-02-09T22:29:12.348Z,80.15
2018-02-09T22:31:44.097Z,80.68
2018-02-09T22:34:15.721Z,80.93
2018-02-09T22:36:46.700Z,80.40
2018-02-09T22:39:18.155Z,80.55
2018-02-09T22:41:48.968Z,80.89
2018-02-09T22:44:20.205Z,80.42
2018-02-09T22:46:51.643Z,81.33
2018-02-09T22:49:22.408Z,81.25
2018-02-09T22:51:53.475Z,82.57
2018-02-09T22:54:24.245Z,82.61
2018-02-09T22:56:55.048Z,83.01
2018-02-09T22:59:26.180Z,82.73
2018-02-09T23:01:57.900Z,82.21
2018-02-09T23:04:28.691Z,82.28
2018-02-09T23:07:00.115Z,82.12
2018-02-09T23:09:30.928Z,84.26
2018-02-09T23:12:01.756Z,85.44
2018-02-09T23:14:32.784Z,84.40
2018-02-09T23:17:03.492Z,86.12
2018-02-09T23:19:34.324Z,86.47
2018-02-09T23:22:05.383Z,84.84
2018-02-09T23:24:36.116Z,85.24
2018-02-09T23:27:07.606Z,85.64
2018-02-09T23:29:38.400Z,84.89
2018-02-09T23:32:09.675Z,86.37
2018-02-09T23:34:40.940Z,83.83
2018-02-09T23:37:12.463Z,84.52
2018-02-09T23:39:43.476Z,83.15
2018-02-09T23:42:14.721Z,82.56
2018-02-09T23:44:45.546Z,81.74
2018-02-09T23:47:16.337Z,82.06
2018-02-09T23:49:47.532Z,81.18
2018-02-09T23:52:18.324Z,81.52
2018-02-09T23:54:49.623Z,81.85
2018-02-09T23:57:21.015Z,81.84
2018-02-09T23:59:52.008Z,82.08
